createdAt,value
2019-05-12T00:00:14.786Z,87.14
2019-05-12T00:01:14.780Z,87.90
2019-05-12T00:02:14.772Z,87.62
2019-05-12T00:03:14.759Z,88.28
2019-05-12T00:04:14.744Z,88.38
2019-05-12T00:05:14.742Z,88.19
2019-05-12T00:06:14.732Z,88.38
2019-05-12T00:07:14.717Z,88.19
2019-05-12T00:08:14.708Z,88.28
2019-05-12T00:09:14.697Z,88.19
2019-05-12T00:10:14.687Z,88.57
2019-05-12T00:11:14.680Z,88.19
2019-05-12T00:12:14.667Z,88.19
2019-05-12T00:13:14.659Z,88.38
2019-05-12T00:14:14.648Z,88.57
2019-05-12T00:15:14.643Z,88.95
2019-05-12T00:16:14.629Z,88.28
2019-05-12T00:17:14.620Z,88.76
2019-05-12T00:18:14.609Z,88.95
2019-05-12T00:19:14.597Z,89.33
2019-05-12T00:20:14.586Z,89.52
2019-05-12T00:21:14.580Z,89.33
2019-05-12T00:22:14.570Z,88.76
2019-05-12T00:23:24.966Z,88.95
2019-05-12T00:24:14.550Z,89.42
2019-05-12T00:25:14.542Z,89.04
2019-05-12T00:26:14.531Z,89.42
2019-05-12T00:27:14.517Z,89.90
2019-05-12T00:28:14.509Z,90.00
2019-05-12T00:29:14.506Z,89.61
2019-05-12T00:30:14.489Z,89.52
2019-05-12T00:31:14.476Z,90.37
2019-05-12T00:32:29.300Z,90.00
2019-05-12T00:33:14.459Z,90.37
2019-05-12T00:34:14.451Z,90.47
2019-05-12T00:35:14.438Z,90.28
2019-05-12T00:36:14.430Z,90.47
2019-05-12T00:37:14.419Z,89.90
2019-05-12T00:38:14.406Z,89.80
2019-05-12T00:39:14.409Z,90.47
2019-05-12T00:40:14.389Z,90.56
2019-05-12T00:41:14.388Z,90.47
2019-05-12T00:42:14.374Z,90.47
2019-05-12T00:43:14.359Z,90.19
2019-05-12T00:44:14.344Z,90.19
2019-05-12T00:45:14.337Z,89.90
2019-05-12T00:46:14.328Z,89.71
2019-05-12T00:47:14.321Z,89.71
2019-05-12T00:48:14.308Z,90.19
2019-05-12T00:49:14.299Z,90.00
2019-05-12T00:50:14.289Z,90.28
2019-05-12T00:51:14.274Z,90.75
2019-05-12T00:52:14.270Z,90.47
2019-05-12T00:53:14.257Z,91.13
2019-05-12T00:54:14.262Z,91.33
2019-05-12T00:55:14.240Z,91.13
2019-05-12T00:56:14.228Z,91.85
2019-05-12T00:57:14.219Z,91.23
2019-05-12T00:58:14.205Z,91.33
2019-05-12T00:59:15.817Z,90.90
2019-05-12T01:00:14.182Z,91.56
2019-05-12T01:01:14.180Z,91.56
2019-05-12T01:02:14.169Z,91.94
2019-05-12T01:03:14.159Z,92.13
2019-05-12T01:04:14.140Z,92.99
2019-05-12T01:05:14.133Z,93.08
2019-05-12T01:06:14.125Z,92.71
2019-05-12T01:07:14.119Z,93.18
2019-05-12T01:08:14.105Z,93.08
2019-05-12T01:09:14.100Z,93.84
2019-05-12T01:10:14.090Z,93.65
2019-05-12T01:11:14.079Z,93.65
2019-05-12T01:12:14.074Z,93.84
2019-05-12T01:13:14.055Z,93.18
2019-05-12T01:14:14.045Z,93.56
2019-05-12T01:15:14.037Z,93.18
2019-05-12T01:16:14.021Z,93.46
2019-05-12T01:17:14.015Z,93.27
2019-05-12T01:18:14.012Z,92.90
2019-05-12T01:19:13.996Z,93.18
2019-05-12T01:20:13.993Z,93.65
2019-05-12T01:21:13.984Z,93.94
2019-05-12T01:22:13.964Z,93.46
2019-05-12T01:23:13.969Z,93.37
2019-05-12T01:24:13.943Z,93.46
2019-05-12T01:25:13.935Z,93.65
2019-05-12T01:26:13.926Z,93.75
2019-05-12T01:27:13.912Z,93.75
2019-05-12T01:28:13.902Z,93.75
2019-05-12T01:29:13.889Z,93.75
2019-05-12T01:30:13.883Z,94.42
2019-05-12T01:31:13.871Z,94.32
2019-05-12T01:32:13.862Z,94.32
2019-05-12T01:33:13.857Z,94.13
2019-05-12T01:34:13.840Z,94.89
2019-05-12T01:35:13.834Z,94.98
2019-05-12T01:36:13.820Z,94.42
2019-05-12T01:37:13.814Z,94.79
2019-05-12T01:38:13.803Z,94.42
2019-05-12T01:39:13.790Z,94.60
2019-05-12T01:40:13.782Z,94.79
2019-05-12T01:41:14.323Z,94.23
2019-05-12T01:42:13.760Z,94.89
2019-05-12T01:43:13.751Z,94.89
2019-05-12T01:44:13.740Z,94.42
2019-05-12T01:45:13.728Z,94.60
2019-05-12T01:46:13.720Z,94.51
2019-05-12T01:47:13.709Z,94.70
2019-05-12T01:48:13.700Z,94.89
2019-05-12T01:49:13.686Z,94.79
2019-05-12T01:50:13.678Z,94.89
2019-05-12T01:51:13.668Z,95.27
2019-05-12T01:52:13.666Z,95.55
2019-05-12T01:53:13.647Z,95.84
2019-05-12T01:54:14.842Z,94.74
2019-05-12T01:55:13.630Z,94.89
2019-05-12T01:56:13.627Z,94.70
2019-05-12T01:57:13.606Z,95.55
2019-05-12T01:58:13.598Z,95.55
2019-05-12T01:59:13.585Z,95.31
2019-05-12T02:00:13.575Z,95.51
2019-05-12T02:01:13.567Z,95.51
2019-05-12T02:02:13.551Z,95.22
2019-05-12T02:03:13.548Z,96.17
2019-05-12T02:04:13.537Z,96.17
2019-05-12T02:05:13.522Z,96.55
2019-05-12T02:06:13.516Z,96.55
2019-05-12T02:07:13.504Z,96.45
2019-05-12T02:08:13.498Z,96.45
2019-05-12T02:09:13.485Z,96.55
2019-05-12T02:10:13.475Z,96.45
2019-05-12T02:11:13.467Z,96.36
2019-05-12T02:12:13.454Z,96.55
2019-05-12T02:13:13.442Z,96.55
2019-05-12T02:14:13.429Z,96.36
2019-05-12T02:15:13.422Z,96.36
2019-05-12T02:16:13.417Z,96.64
2019-05-12T02:17:13.400Z,96.55
2019-05-12T02:18:13.393Z,96.26
2019-05-12T02:19:13.387Z,96.26
2019-05-12T02:20:13.367Z,96.36
2019-05-12T02:21:13.356Z,96.17
2019-05-12T02:22:13.352Z,96.36
2019-05-12T02:23:13.343Z,96.55
2019-05-12T02:24:24.350Z,96.36
2019-05-12T02:25:13.327Z,96.17
2019-05-12T02:26:13.835Z,96.64
2019-05-12T02:27:13.303Z,96.36
2019-05-12T02:28:13.288Z,96.17
2019-05-12T02:29:13.275Z,96.64
2019-05-12T02:30:13.264Z,96.93
2019-05-12T02:31:13.845Z,96.64
2019-05-12T02:32:13.240Z,96.74
2019-05-12T02:33:15.899Z,97.02
2019-05-12T02:34:15.784Z,96.74
2019-05-12T02:35:16.103Z,97.12
2019-05-12T02:36:15.115Z,96.93
2019-05-12T02:37:15.352Z,97.12
2019-05-12T02:38:14.517Z,97.31
2019-05-12T02:39:14.959Z,97.41
2019-05-12T02:40:15.163Z,96.93
2019-05-12T02:41:15.433Z,97.31
2019-05-12T02:42:15.629Z,97.69
2019-05-12T02:43:15.415Z,97.22
2019-05-12T02:44:14.916Z,97.41
2019-05-12T02:45:15.439Z,98.07
2019-05-12T02:46:15.533Z,97.31
2019-05-12T02:47:15.997Z,97.31
2019-05-12T02:48:14.449Z,97.50
2019-05-12T02:49:15.691Z,97.60
2019-05-12T02:50:14.572Z,97.31
2019-05-12T02:51:15.497Z,97.41
2019-05-12T02:52:15.433Z,97.78
2019-05-12T02:53:14.423Z,97.69
2019-05-12T02:54:14.350Z,97.88
2019-05-12T02:55:15.010Z,97.60
2019-05-12T02:56:15.169Z,97.97
2019-05-12T02:57:14.356Z,98.35
2019-05-12T02:58:15.196Z,98.26
2019-05-12T02:59:15.428Z,98.07
2019-05-12T03:00:15.974Z,98.64
2019-05-12T03:01:15.299Z,98.45
2019-05-12T03:02:14.206Z,98.54
2019-05-12T03:03:14.700Z,98.35
2019-05-12T03:04:14.554Z,98.26
2019-05-12T03:05:14.830Z,98.35
2019-05-12T03:06:15.109Z,98.54
2019-05-12T03:07:15.275Z,98.35
2019-05-12T03:08:15.406Z,98.26
2019-05-12T03:09:15.117Z,98.64
2019-05-12T03:10:14.598Z,98.26
2019-05-12T03:11:14.842Z,98.26
2019-05-12T03:12:14.451Z,98.26
2019-05-12T03:13:14.915Z,98.64
2019-05-12T03:14:15.649Z,98.45
2019-05-12T03:15:15.254Z,98.35
2019-05-12T03:16:14.950Z,98.26
2019-05-12T03:17:15.330Z,98.35
2019-05-12T03:18:14.639Z,98.26
2019-05-12T03:19:15.056Z,98.45
2019-05-12T03:20:15.272Z,98.35
2019-05-12T03:21:15.246Z,98.26
2019-05-12T03:22:14.184Z,98.16
2019-05-12T03:23:15.765Z,98.45
2019-05-12T03:24:14.676Z,98.83
2019-05-12T03:25:20.784Z,98.26
2019-05-12T03:26:15.393Z,98.64
2019-05-12T03:27:14.579Z,99.02
2019-05-12T03:28:15.689Z,99.02
2019-05-12T03:29:14.754Z,98.64
2019-05-12T03:30:19.010Z,98.83
2019-05-12T03:31:22.363Z,99.02
2019-05-12T03:32:17.339Z,99.11
2019-05-12T03:33:18.697Z,98.92
2019-05-12T03:34:18.530Z,98.64
2019-05-12T03:35:17.665Z,99.11
2019-05-12T03:36:17.229Z,99.58
2019-05-12T03:37:17.260Z,99.02
2019-05-12T03:38:14.871Z,99.30
2019-05-12T03:39:14.936Z,99.30
2019-05-12T03:40:14.461Z,99.02
2019-05-12T03:41:14.743Z,99.30
2019-05-12T03:42:14.568Z,99.02
2019-05-12T03:43:14.490Z,99.40
2019-05-12T03:44:15.072Z,98.73
2019-05-12T03:45:14.987Z,99.58
2019-05-12T03:46:15.276Z,98.54
2019-05-12T03:47:14.428Z,99.58
2019-05-12T03:48:14.896Z,99.30
2019-05-12T03:49:15.208Z,99.21
2019-05-12T03:50:14.791Z,99.11
2019-05-12T03:51:15.325Z,98.92
2019-05-12T03:52:15.059Z,99.40
2019-05-12T03:53:15.544Z,99.40
2019-05-12T03:54:15.231Z,99.58
2019-05-12T03:55:30.896Z,99.11
2019-05-12T03:56:15.145Z,99.49
2019-05-12T03:57:15.006Z,99.58
2019-05-12T03:58:14.329Z,99.21
2019-05-12T03:59:14.967Z,99.30
2019-05-12T04:00:15.645Z,99.40
2019-05-12T04:01:15.065Z,99.40
2019-05-12T04:02:15.038Z,99.02
2019-05-12T04:03:15.202Z,99.21
2019-05-12T04:04:14.992Z,99.02
2019-05-12T04:05:15.175Z,99.68
2019-05-12T04:06:15.106Z,99.02
2019-05-12T04:07:15.271Z,99.99
2019-05-12T04:08:15.394Z,99.40
2019-05-12T04:09:15.148Z,98.83
2019-05-12T04:10:14.772Z,99.97
2019-05-12T04:11:14.551Z,99.40
2019-05-12T04:12:14.756Z,99.11
2019-05-12T04:13:15.059Z,99.97
2019-05-12T04:14:14.807Z,99.21
2019-05-12T04:15:15.217Z,99.58
2019-05-12T04:16:16.038Z,99.40
2019-05-12T04:17:14.768Z,99.21
2019-05-12T04:18:15.490Z,99.99
2019-05-12T04:19:14.656Z,99.02
2019-05-12T04:20:15.255Z,99.21
2019-05-12T04:21:15.234Z,99.11
2019-05-12T04:22:15.153Z,99.99
2019-05-12T04:23:15.013Z,99.40
2019-05-12T04:24:14.272Z,99.02
2019-05-12T04:25:14.669Z,99.21
2019-05-12T04:26:16.471Z,99.58
2019-05-12T04:27:15.017Z,99.99
2019-05-12T04:28:14.735Z,99.99
2019-05-12T04:29:15.154Z,99.99
2019-05-12T04:30:14.465Z,99.73
2019-05-12T04:31:15.250Z,99.26
2019-05-12T04:32:14.334Z,99.02
2019-05-12T04:33:15.164Z,99.35
2019-05-12T04:34:15.652Z,98.92
2019-05-12T04:35:14.549Z,99.35
2019-05-12T04:36:14.670Z,99.99
2019-05-12T04:37:14.580Z,99.44
2019-05-12T04:38:15.001Z,99.07
2019-05-12T04:39:14.662Z,99.26
2019-05-12T04:40:14.821Z,98.97
2019-05-12T04:41:14.571Z,99.30
2019-05-12T04:42:14.630Z,99.30
2019-05-12T04:43:14.591Z,99.35
2019-05-12T04:44:14.868Z,99.54
2019-05-12T04:45:15.200Z,99.30
2019-05-12T04:46:14.535Z,99.16
2019-05-12T04:47:14.604Z,99.02
2019-05-12T04:48:14.982Z,99.44
2019-05-12T04:49:15.481Z,99.99
2019-05-12T04:50:15.306Z,99.99
2019-05-12T04:51:11.806Z,99.44
2019-05-12T04:52:11.798Z,99.64
2019-05-12T04:53:14.522Z,99.54
2019-05-12T04:54:14.981Z,99.83
2019-05-12T04:55:14.722Z,99.44
2019-05-12T04:56:19.144Z,99.44
2019-05-12T04:57:14.705Z,99.44
2019-05-12T04:58:15.206Z,98.97
2019-05-12T04:59:15.267Z,99.35
2019-05-12T05:00:15.273Z,98.79
2019-05-12T05:01:15.169Z,99.26
2019-05-12T05:02:11.697Z,99.16
2019-05-12T05:03:14.164Z,99.50
2019-05-12T05:04:11.677Z,99.11
2019-05-12T05:05:14.258Z,98.93
2019-05-12T05:06:14.557Z,98.45
2019-05-12T05:07:14.822Z,98.45
2019-05-12T05:08:14.493Z,98.36
2019-05-12T05:09:14.241Z,98.07
2019-05-12T05:10:14.289Z,98.36
2019-05-12T05:11:14.519Z,97.88
2019-05-12T05:12:13.919Z,97.69
2019-05-12T05:13:11.592Z,97.60
2019-05-12T05:14:13.536Z,97.60
2019-05-12T05:15:14.377Z,97.41
2019-05-12T05:16:14.153Z,97.41
2019-05-12T05:17:11.554Z,97.41
2019-05-12T05:18:13.385Z,97.41
2019-05-12T05:19:13.320Z,97.31
2019-05-12T05:20:13.469Z,97.50
2019-05-12T05:21:13.707Z,97.22
2019-05-12T05:22:13.571Z,97.50
2019-05-12T05:23:13.879Z,97.12
2019-05-12T05:24:11.483Z,96.93
2019-05-12T05:25:11.474Z,96.93
2019-05-12T05:26:22.086Z,96.45
2019-05-12T05:27:13.276Z,96.65
2019-05-12T05:28:11.445Z,96.65
2019-05-12T05:29:13.377Z,96.26
2019-05-12T05:30:13.695Z,96.79
2019-05-12T05:31:13.879Z,96.60
2019-05-12T05:32:11.414Z,96.41
2019-05-12T05:33:11.403Z,96.50
2019-05-12T05:34:11.392Z,96.50
2019-05-12T05:35:13.311Z,96.50
2019-05-12T05:36:15.200Z,96.60
2019-05-12T05:37:11.356Z,96.79
2019-05-12T05:38:18.681Z,96.89
2019-05-12T05:39:13.678Z,96.79
2019-05-12T05:40:13.876Z,96.12
2019-05-12T05:41:13.260Z,96.50
2019-05-12T05:42:13.384Z,96.60
2019-05-12T05:43:17.769Z,96.69
2019-05-12T05:44:13.720Z,96.03
2019-05-12T05:45:19.662Z,96.03
2019-05-12T05:46:13.642Z,95.94
2019-05-12T05:47:13.744Z,95.65
2019-05-12T05:48:13.391Z,95.46
2019-05-12T05:49:13.229Z,95.46
2019-05-12T05:50:13.389Z,95.17
2019-05-12T05:51:13.457Z,95.17
2019-05-12T05:52:13.626Z,94.98
2019-05-12T05:53:17.925Z,94.89
2019-05-12T05:54:13.620Z,95.08
2019-05-12T05:55:14.372Z,95.79
2019-05-12T05:56:11.188Z,95.60
2019-05-12T05:57:11.184Z,95.89
2019-05-12T05:58:11.899Z,94.46
2019-05-12T05:59:11.159Z,93.41
2019-05-12T06:00:17.391Z,92.84
2019-05-12T06:01:13.529Z,92.79
2019-05-12T06:02:13.708Z,92.41
2019-05-12T06:03:14.892Z,91.65
2019-05-12T06:04:11.123Z,90.70
2019-05-12T06:05:11.113Z,89.03
2019-05-12T06:06:12.615Z,89.22
2019-05-12T06:07:11.097Z,87.23
2019-05-12T06:08:16.309Z,86.27
2019-05-12T06:09:11.088Z,85.46
2019-05-12T06:10:11.076Z,84.69
2019-05-12T06:11:14.679Z,84.88
2019-05-12T06:12:11.064Z,83.93
2019-05-12T06:13:11.056Z,84.22
2019-05-12T06:14:12.852Z,84.69
2019-05-12T06:15:13.397Z,83.88
2019-05-12T06:16:19.855Z,83.21
2019-05-12T06:17:11.033Z,81.40
2019-05-12T06:18:13.426Z,81.21
2019-05-12T06:19:11.020Z,80.92
2019-05-12T06:20:13.307Z,79.15
2019-05-12T06:21:11.010Z,77.62
2019-05-12T06:22:15.386Z,78.20
2019-05-12T06:23:11.000Z,76.96
2019-05-12T06:24:15.315Z,76.39
2019-05-12T06:25:10.985Z,76.96
2019-05-12T06:26:10.981Z,76.48
2019-05-12T06:27:16.206Z,78.01
2019-05-12T06:28:10.969Z,76.39
2019-05-12T06:29:11.358Z,76.96
2019-05-12T06:30:10.962Z,76.67
2019-05-12T06:31:10.955Z,76.48
2019-05-12T06:32:11.139Z,76.48
2019-05-12T06:33:10.944Z,75.81
2019-05-12T06:34:15.290Z,75.76
2019-05-12T06:35:10.937Z,75.95
2019-05-12T06:36:15.680Z,74.71
2019-05-12T06:37:12.241Z,75.09
2019-05-12T06:38:10.923Z,74.74
2019-05-12T06:39:19.024Z,74.37
2019-05-12T06:40:10.913Z,73.22
2019-05-12T06:41:12.645Z,72.64
2019-05-12T06:42:14.107Z,72.83
2019-05-12T06:43:10.897Z,72.49
2019-05-12T06:44:14.909Z,71.63
2019-05-12T06:45:10.889Z,70.77
2019-05-12T06:46:11.797Z,70.39
2019-05-12T06:47:10.880Z,69.43
2019-05-12T06:48:10.870Z,69.72
2019-05-12T06:49:15.342Z,69.91
2019-05-12T06:50:11.434Z,69.72
2019-05-12T06:51:17.062Z,70.48
2019-05-12T06:52:10.859Z,69.82
2019-05-12T06:53:10.853Z,69.85
2019-05-12T06:54:12.653Z,70.71
2019-05-12T06:55:10.843Z,70.14
2019-05-12T06:56:15.295Z,68.99
2019-05-12T06:57:22.247Z,68.23
2019-05-12T06:58:13.782Z,67.30
2019-05-12T06:59:12.355Z,66.25
2019-05-12T07:00:10.832Z,65.77
2019-05-12T07:01:16.719Z,65.77
2019-05-12T07:02:10.818Z,65.64
2019-05-12T07:03:10.817Z,65.07
2019-05-12T07:04:10.815Z,65.17
2019-05-12T07:05:10.812Z,64.98
2019-05-12T07:06:15.384Z,65.74
2019-05-12T07:07:10.808Z,66.60
2019-05-12T07:08:10.801Z,67.55
2019-05-12T07:09:16.340Z,67.18
2019-05-12T07:10:13.021Z,68.04
2019-05-12T07:11:10.789Z,67.46
2019-05-12T07:12:10.783Z,66.50
2019-05-12T07:13:14.713Z,65.55
2019-05-12T07:14:18.868Z,65.84
2019-05-12T07:15:10.804Z,65.93
2019-05-12T07:16:16.612Z,66.73
2019-05-12T07:17:10.770Z,66.35
2019-05-12T07:18:10.771Z,65.87
2019-05-12T07:19:20.559Z,65.33
2019-05-12T07:20:10.761Z,65.20
2019-05-12T07:21:15.521Z,64.25
2019-05-12T07:22:21.726Z,63.96
2019-05-12T07:23:10.760Z,64.25
2019-05-12T07:24:11.279Z,63.89
2019-05-12T07:25:10.744Z,64.28
2019-05-12T07:26:17.588Z,63.51
2019-05-12T07:27:10.745Z,63.60
2019-05-12T07:28:10.745Z,63.70
2019-05-12T07:29:10.742Z,63.03
2019-05-12T07:30:10.743Z,61.69
2019-05-12T07:31:10.732Z,61.98
2019-05-12T07:32:20.050Z,62.65
2019-05-12T07:33:10.725Z,61.60
2019-05-12T07:34:10.729Z,60.26
2019-05-12T07:35:10.729Z,60.93
2019-05-12T07:36:10.737Z,61.60
2019-05-12T07:37:10.723Z,62.77
2019-05-12T07:38:12.016Z,62.20
2019-05-12T07:39:10.719Z,62.30
2019-05-12T07:40:13.634Z,62.20
2019-05-12T07:41:10.989Z,61.57
2019-05-12T07:42:10.714Z,59.36
2019-05-12T07:43:18.590Z,58.88
2019-05-12T07:44:10.714Z,58.50
2019-05-12T07:45:11.381Z,58.40
2019-05-12T07:46:10.709Z,58.69
2019-05-12T07:47:10.711Z,57.45
2019-05-12T07:48:10.714Z,57.64
2019-05-12T07:49:10.705Z,57.90
2019-05-12T07:50:16.230Z,57.51
2019-05-12T07:51:10.702Z,59.14
2019-05-12T07:52:10.702Z,59.62
2019-05-12T07:53:10.704Z,58.15
2019-05-12T07:54:10.702Z,59.11
2019-05-12T07:55:10.699Z,59.11
2019-05-12T07:56:10.704Z,61.51
2019-05-12T07:57:12.485Z,61.60
2019-05-12T07:58:17.760Z,60.06
2019-05-12T07:59:10.700Z,61.05
2019-05-12T08:00:11.379Z,60.77
2019-05-12T08:01:10.684Z,58.18
2019-05-12T08:02:10.684Z,60.38
2019-05-12T08:03:16.190Z,60.99
2019-05-12T08:04:10.685Z,61.18
2019-05-12T08:05:11.046Z,60.44
2019-05-12T08:06:10.679Z,58.53
2019-05-12T08:07:10.682Z,57.28
2019-05-12T08:08:11.108Z,56.23
2019-05-12T08:09:10.685Z,55.56
2019-05-12T08:10:15.858Z,55.44
2019-05-12T08:11:10.674Z,56.39
2019-05-12T08:12:16.370Z,56.87
2019-05-12T08:13:10.674Z,56.49
2019-05-12T08:14:13.684Z,57.23
2019-05-12T08:15:10.673Z,56.94
2019-05-12T08:16:10.670Z,56.84
2019-05-12T08:17:16.850Z,57.20
2019-05-12T08:18:10.666Z,57.01
2019-05-12T08:19:17.216Z,56.53
2019-05-12T08:20:10.660Z,57.07
2019-05-12T08:21:10.657Z,57.84
2019-05-12T08:22:10.652Z,58.41
2019-05-12T08:23:10.794Z,57.65
2019-05-12T08:24:10.649Z,57.29
2019-05-12T08:25:10.649Z,57.58
2019-05-12T08:26:16.260Z,58.83
2019-05-12T08:27:10.640Z,58.02
2019-05-12T08:28:15.572Z,57.16
2019-05-12T08:29:15.954Z,56.04
2019-05-12T08:30:10.637Z,55.56
2019-05-12T08:31:10.635Z,56.07
2019-05-12T08:32:16.015Z,55.11
2019-05-12T08:33:10.633Z,52.16
2019-05-12T08:34:10.633Z,51.68
2019-05-12T08:35:10.634Z,52.64
2019-05-12T08:36:11.708Z,53.41
2019-05-12T08:37:10.639Z,54.17
2019-05-12T08:38:10.635Z,52.48
2019-05-12T08:39:11.948Z,52.48
2019-05-12T08:40:10.632Z,50.87
2019-05-12T08:41:10.632Z,51.28
2019-05-12T08:42:10.637Z,50.51
2019-05-12T08:43:10.910Z,48.88
2019-05-12T08:44:10.636Z,49.19
2019-05-12T08:45:15.171Z,48.81
2019-05-12T08:46:12.806Z,47.49
2019-05-12T08:47:12.143Z,47.30
2019-05-12T08:48:17.064Z,48.54
2019-05-12T08:49:10.645Z,47.39
2019-05-12T08:50:10.654Z,46.33
2019-05-12T08:51:16.795Z,47.77
2019-05-12T08:52:10.665Z,47.46
2019-05-12T08:53:13.921Z,48.81
2019-05-12T08:54:10.664Z,49.99
2019-05-12T08:55:13.827Z,47.08
2019-05-12T08:56:14.440Z,46.98
2019-05-12T08:57:10.672Z,48.43
2019-05-12T08:58:10.677Z,49.57
2019-05-12T08:59:17.468Z,49.74
2019-05-12T09:00:10.685Z,48.88
2019-05-12T09:01:10.689Z,48.59
2019-05-12T09:02:10.971Z,48.11
2019-05-12T09:03:10.695Z,48.66
2019-05-12T09:04:15.097Z,48.44
2019-05-12T09:05:10.693Z,48.83
2019-05-12T09:06:17.932Z,48.64
2019-05-12T09:07:10.699Z,49.31
2019-05-12T09:08:10.699Z,49.29
2019-05-12T09:09:10.697Z,49.38
2019-05-12T09:10:10.705Z,49.76
2019-05-12T09:11:10.703Z,50.22
2019-05-12T09:12:10.701Z,50.53
2019-05-12T09:13:10.703Z,49.93
2019-05-12T09:14:10.708Z,50.99
2019-05-12T09:15:10.706Z,50.70
2019-05-12T09:16:10.704Z,50.58
2019-05-12T09:17:10.703Z,50.38
2019-05-12T09:18:10.701Z,51.82
2019-05-12T09:19:16.240Z,52.40
2019-05-12T09:20:10.701Z,52.30
2019-05-12T09:21:10.703Z,52.42
2019-05-12T09:22:18.461Z,52.42
2019-05-12T09:23:10.699Z,52.64
2019-05-12T09:24:15.569Z,51.59
2019-05-12T09:25:10.697Z,50.56
2019-05-12T09:26:10.693Z,48.38
2019-05-12T09:27:10.706Z,48.85
2019-05-12T09:28:10.697Z,48.97
2019-05-12T09:29:10.700Z,48.40
2019-05-12T09:30:10.707Z,45.64
2019-05-12T09:31:10.693Z,45.37
2019-05-12T09:32:10.702Z,43.74
2019-05-12T09:33:10.702Z,42.49
2019-05-12T09:34:15.852Z,44.12
2019-05-12T09:35:10.709Z,42.37
2019-05-12T09:36:11.339Z,43.45
2019-05-12T09:37:10.711Z,44.48
2019-05-12T09:38:11.428Z,45.28
2019-05-12T09:39:10.712Z,44.99
2019-05-12T09:40:10.724Z,43.84
2019-05-12T09:41:10.719Z,42.58
2019-05-12T09:42:10.722Z,42.10
2019-05-12T09:43:11.036Z,43.35
2019-05-12T09:44:10.744Z,41.82
2019-05-12T09:45:10.772Z,42.60
2019-05-12T09:46:10.741Z,40.97
2019-05-12T09:47:21.910Z,42.60
2019-05-12T09:48:10.744Z,43.30
2019-05-12T09:49:10.748Z,42.24
2019-05-12T09:50:16.005Z,42.26
2019-05-12T09:51:10.754Z,42.46
2019-05-12T09:52:13.885Z,40.81
2019-05-12T09:53:11.639Z,40.70
2019-05-12T09:54:10.769Z,39.14
2019-05-12T09:55:10.785Z,38.95
2019-05-12T09:56:10.773Z,41.43
2019-05-12T09:57:10.776Z,41.33
2019-05-12T09:58:14.072Z,41.43
2019-05-12T09:59:17.899Z,41.16
2019-05-12T10:00:10.791Z,41.64
2019-05-12T10:01:10.789Z,41.74
2019-05-12T10:02:15.725Z,40.80
2019-05-12T10:03:10.792Z,39.93
2019-05-12T10:04:15.358Z,38.78
2019-05-12T10:05:10.808Z,37.91
2019-05-12T10:06:11.469Z,37.62
2019-05-12T10:07:10.806Z,38.59
2019-05-12T10:08:10.815Z,38.70
2019-05-12T10:09:17.665Z,39.28
2019-05-12T10:10:10.825Z,38.79
2019-05-12T10:11:16.669Z,38.53
2019-05-12T10:12:13.438Z,38.91
2019-05-12T10:13:10.832Z,39.39
2019-05-12T10:14:11.143Z,40.09
2019-05-12T10:15:10.837Z,41.72
2019-05-12T10:16:10.845Z,40.57
2019-05-12T10:17:10.849Z,39.51
2019-05-12T10:18:11.480Z,37.96
2019-05-12T10:19:10.854Z,38.64
2019-05-12T10:20:10.858Z,37.87
2019-05-12T10:21:15.330Z,36.99
2019-05-12T10:22:10.868Z,37.06
2019-05-12T10:23:18.033Z,37.93
2019-05-12T10:24:10.878Z,37.45
2019-05-12T10:25:10.885Z,36.66
2019-05-12T10:26:12.279Z,38.68
2019-05-12T10:27:10.882Z,38.76
2019-05-12T10:28:12.848Z,39.04
2019-05-12T10:29:17.535Z,40.39
2019-05-12T10:30:12.679Z,41.05
2019-05-12T10:31:10.896Z,40.85
2019-05-12T10:32:13.218Z,40.45
2019-05-12T10:33:10.898Z,40.83
2019-05-12T10:34:10.920Z,40.45
2019-05-12T10:35:12.610Z,41.41
2019-05-12T10:36:10.905Z,41.70
2019-05-12T10:37:13.223Z,41.31
2019-05-12T10:38:11.027Z,41.70
2019-05-12T10:39:10.907Z,41.02
2019-05-12T10:40:10.906Z,39.97
2019-05-12T10:41:12.980Z,39.97
2019-05-12T10:42:10.915Z,39.37
2019-05-12T10:43:10.914Z,38.60
2019-05-12T10:44:10.919Z,37.41
2019-05-12T10:45:16.998Z,36.63
2019-05-12T10:46:13.073Z,37.57
2019-05-12T10:47:13.340Z,38.32
2019-05-12T10:48:10.917Z,38.68
2019-05-12T10:49:10.922Z,40.02
2019-05-12T10:50:10.922Z,41.55
2019-05-12T10:51:10.929Z,42.34
2019-05-12T10:52:10.931Z,44.47
2019-05-12T10:53:15.581Z,45.45
2019-05-12T10:54:13.212Z,44.80
2019-05-12T10:55:13.315Z,41.27
2019-05-12T10:56:10.936Z,40.81
2019-05-12T10:57:10.944Z,40.64
2019-05-12T10:58:10.936Z,40.08
2019-05-12T10:59:13.206Z,39.33
2019-05-12T11:00:10.941Z,37.32
2019-05-12T11:01:13.282Z,37.70
2019-05-12T11:02:10.949Z,37.12
2019-05-12T11:03:14.658Z,36.82
2019-05-12T11:04:10.957Z,36.43
2019-05-12T11:05:12.286Z,36.53
2019-05-12T11:06:10.950Z,37.27
2019-05-12T11:07:10.956Z,38.14
2019-05-12T11:08:11.442Z,40.35
2019-05-12T11:09:10.953Z,38.43
2019-05-12T11:10:16.506Z,37.37
2019-05-12T11:11:13.481Z,38.24
2019-05-12T11:12:10.966Z,38.62
2019-05-12T11:13:10.959Z,40.06
2019-05-12T11:14:10.961Z,41.22
2019-05-12T11:15:13.415Z,40.35
2019-05-12T11:16:14.011Z,40.37
2019-05-12T11:17:10.966Z,42.30
2019-05-12T11:18:10.968Z,41.64
2019-05-12T11:19:10.973Z,40.89
2019-05-12T11:20:10.972Z,41.18
2019-05-12T11:21:10.965Z,39.45
2019-05-12T11:22:10.970Z,38.41
2019-05-12T11:23:10.988Z,38.99
2019-05-12T11:24:10.974Z,41.03
2019-05-12T11:25:10.978Z,38.81
2019-05-12T11:26:10.980Z,36.69
2019-05-12T11:27:13.301Z,36.77
2019-05-12T11:28:10.978Z,36.49
2019-05-12T11:29:10.992Z,36.10
2019-05-12T11:30:13.098Z,37.06
2019-05-12T11:31:10.998Z,35.42
2019-05-12T11:32:10.996Z,34.92
2019-05-12T11:33:11.002Z,35.30
2019-05-12T11:34:11.002Z,36.25
2019-05-12T11:35:11.010Z,35.95
2019-05-12T11:36:11.025Z,36.33
2019-05-12T11:37:11.016Z,36.91
2019-05-12T11:38:13.244Z,36.72
2019-05-12T11:39:11.019Z,38.76
2019-05-12T11:40:13.076Z,39.81
2019-05-12T11:41:18.436Z,39.45
2019-05-12T11:42:13.592Z,37.26
2019-05-12T11:43:11.042Z,36.97
2019-05-12T11:44:13.148Z,37.16
2019-05-12T11:45:11.051Z,35.04
2019-05-12T11:46:11.056Z,36.68
2019-05-12T11:47:16.988Z,37.76
2019-05-12T11:48:11.063Z,39.59
2019-05-12T11:49:11.069Z,37.76
2019-05-12T11:50:13.081Z,36.71
2019-05-12T11:51:11.082Z,34.50
2019-05-12T11:52:16.753Z,34.29
2019-05-12T11:53:13.560Z,33.42
2019-05-12T11:54:13.553Z,33.31
2019-05-12T11:55:13.355Z,34.16
2019-05-12T11:56:11.094Z,34.53
2019-05-12T11:57:13.195Z,36.53
2019-05-12T11:58:11.719Z,38.85
2019-05-12T11:59:13.226Z,39.04
2019-05-12T12:00:11.115Z,38.66
2019-05-12T12:01:13.337Z,37.70
2019-05-12T12:02:13.346Z,37.12
2019-05-12T12:03:13.422Z,38.37
2019-05-12T12:04:11.133Z,38.68
2019-05-12T12:05:11.138Z,37.24
2019-05-12T12:06:13.015Z,35.49
2019-05-12T12:07:11.145Z,38.56
2019-05-12T12:08:11.139Z,39.43
2019-05-12T12:09:15.227Z,39.64
2019-05-12T12:10:11.252Z,38.78
2019-05-12T12:11:18.199Z,37.26
2019-05-12T12:12:13.066Z,38.70
2019-05-12T12:13:11.156Z,37.64
2019-05-12T12:14:11.157Z,37.54
2019-05-12T12:15:13.653Z,36.58
2019-05-12T12:16:11.558Z,36.56
2019-05-12T12:17:11.165Z,36.16
2019-05-12T12:18:13.748Z,35.87
2019-05-12T12:19:11.162Z,37.41
2019-05-12T12:20:13.915Z,38.54
2019-05-12T12:21:11.164Z,38.07
2019-05-12T12:22:11.212Z,38.74
2019-05-12T12:23:11.451Z,38.93
2019-05-12T12:24:13.075Z,38.54
2019-05-12T12:25:13.093Z,40.37
2019-05-12T12:26:13.181Z,39.97
2019-05-12T12:27:11.174Z,39.29
2019-05-12T12:28:13.483Z,39.11
2019-05-12T12:29:13.512Z,39.49
2019-05-12T12:30:16.741Z,39.85
2019-05-12T12:31:13.095Z,39.56
2019-05-12T12:32:18.532Z,40.72
2019-05-12T12:33:11.170Z,40.33
2019-05-12T12:34:17.181Z,40.99
2019-05-12T12:35:14.723Z,41.17
2019-05-12T12:36:11.164Z,41.46
2019-05-12T12:37:11.164Z,40.99
2019-05-12T12:38:11.162Z,41.63
2019-05-12T12:39:13.078Z,41.54
2019-05-12T12:40:11.179Z,41.35
2019-05-12T12:41:13.108Z,42.50
2019-05-12T12:42:14.032Z,42.40
2019-05-12T12:43:11.169Z,41.73
2019-05-12T12:44:11.156Z,42.30
2019-05-12T12:45:11.151Z,42.30
2019-05-12T12:46:18.231Z,43.46
2019-05-12T12:47:11.146Z,43.17
2019-05-12T12:48:11.763Z,43.44
2019-05-12T12:49:11.139Z,43.73
2019-05-12T12:50:13.254Z,43.24
2019-05-12T12:51:11.132Z,44.49
2019-05-12T12:52:11.136Z,45.47